• Join FlightAware (Why Join?)
  • Login
  • US Flag 
02:36AM EDT


 

Airport Tracker/Info


-or-


 

Live Flight TrackerFlight Track Log ✈ UAL3827 ✈ 05-Nov-2013 ✈ KORF - KEWR

Flight Track Log - Related Links

Times and Time Zones

All times are in EST time to prevent confusion due to time zone crossing. See the UAL3827 flight status page for this flight to view local times or setup timezone preferences in your user account.

Time Position Orientation Groundspeed Altitude Reporting Facility
EST Latitude Longitude Course Direction KTS MPH feet Rate Location/Type
01:43PM 36.9056 -76.1894 270° West 168 193 700  Level Washington Center
01:44PM 36.9161 -76.1817 31° Northeast 159 183 1,500 2,160 Climbing Washington Center
01:45PM 36.9597 -76.2028 339° North 232 267 3,600 1,200 Climbing Washington Center
01:46PM 36.9572 -76.2858 268° West 236 272 4,000 1,140 Climbing Washington Center
01:47PM 37.2070 -76.0426 300° West  Level Estimated
01:47PM 36.9567 -76.3717 270° West 250 288 6,000  Level Washington Center
01:48PM 37.2850 -76.0028 302° West  Level Estimated
01:48PM 36.9853 -76.4603 292° West 273 314 8,400  Level Washington Center
01:49PM 37.3631 -75.9628 270° West  Level Estimated
01:49PM 37.0264 -76.5389 303° West 280 322 10,900  Level Washington Center
01:50PM 37.0758 -76.6306 304° West 332 382 12,100 1,380 Climbing Washington Center
01:51PM 37.1269 -76.7303 303° West 363 418 13,800 1,620 Climbing Washington Center
01:52PM 37.1783 -76.8275 304° West 363 418 15,400 1,620 Climbing Washington Center
01:53PM 37.2292 -76.9275 303° West 350 403 17,100 1,380 Climbing Washington Center
01:54PM 37.2803 -77.0275 303° West 345 397 18,200 1,200 Climbing Washington Center
01:55PM 37.3503 -77.0942 323° Northwest 345 397 19,500 1,440 Climbing Washington Center
01:56PM 37.4636 -77.0597 14° North 341 392 21,100 1,320 Climbing Washington Center
01:57PM 37.5619 -77.0169 19° North 377 434 22,300 1,140 Climbing Washington Center
01:58PM 37.6647 -76.9744 18° North 383 441 23,500 1,080 Climbing Washington Center
01:59PM 37.7717 -76.9289 19° North 389 448 24,500 1,020 Climbing Washington Center
02:00PM 37.8783 -76.8836 19° North 389 448 25,600 720 Climbing Washington Center
02:01PM 37.9833 -76.8222 25° Northeast 399 459 26,000 180 Climbing Washington Center
02:02PM 38.0722 -76.6997 47° Northeast 430 495 26,000  Level Washington Center
02:03PM 38.1650 -76.5742 47° Northeast 447 514 26,000  Level Washington Center
02:04PM 38.2556 -76.4483 47° Northeast 470 541 26,000  Level Washington Center
02:05PM 38.3875 -76.3811 22° Northeast 458 527 26,000  Level Washington Center
02:06PM 38.5147 -76.3586 North 446 513 26,000  Level Washington Center
02:07PM 38.6422 -76.3358 North 453 521 26,000  Level Washington Center
02:08PM 38.7694 -76.3133 North 453 521 26,000  Level Washington Center
02:09PM 38.8967 -76.2878 North 453 521 26,000  Level Washington Center
02:10PM 39.0239 -76.2650 North 453 521 26,000  Level Washington Center
02:11PM 39.1264 -76.2417 10° North 459 528 26,000 -60 Level Washington Center
02:12PM 39.2478 -76.1194 38° Northeast 466 536 25,900  Descending Washington Center
02:13PM 39.3461 -76.0050 42° Northeast 478 550 26,000  Climbing Washington Center
02:14PM 39.4464 -75.8844 43° Northeast 478 550 26,000 -60 Level Washington Center
02:15PM 39.5467 -75.7664 42° Northeast 483 556 25,900 -1,140 Descending Washington Center
02:16PM 39.6469 -75.6481 42° Northeast 483 556 23,800 -2,340 Descending Washington Center
02:17PM 39.7386 -75.5375 43° Northeast 471 542 21,300 -2,460 Descending Washington Center
02:18PM 39.8281 -75.4322 42° Northeast 443 510 18,900 -2,040 Descending Washington Center
02:19PM 39.9133 -75.3264 44° Northeast 430 495 17,200 -2,160 Descending Washington Center
02:20PM 39.9942 -75.2286 43° Northeast 408 470 14,600 -2,160 Descending Washington Center
02:22PM 40.1667 -75.0167 43° Northeast 330 380 10,300 -1,860 Descending New York TRACON
02:23PM 40.2333 -74.9333 44° Northeast 298 343 8,700 -1,200 Descending New York TRACON
02:24PM 40.2833 -74.8667 45° Northeast 289 333 8,000 -540 Descending New York TRACON
02:25PM 40.3500 -74.7833 44° Northeast 286 329 7,700 -660 Descending New York TRACON
02:26PM 40.4000 -74.7167 45° Northeast 287 330 6,700 -1,080 Descending New York TRACON
02:27PM 40.4667 -74.6667 30° Northeast 271 312 5,600 -1,260 Descending New York TRACON
02:28PM 40.5167 -74.6000 45° Northeast 258 297 4,200 -1,260 Descending New York TRACON
02:29PM 40.5833 -74.5500 30° Northeast 256 295 3,100 -660 Descending New York TRACON
02:30PM 40.6167 -74.5000 49° Northeast 251 289 3,000 -180 Descending New York TRACON
02:31PM 40.6833 -74.4500 30° Northeast 231 266 2,800 -480 Descending New York TRACON
02:32PM 40.7167 -74.3833 57° Northeast 222 255 2,000 -420 Descending New York TRACON
02:33PM 40.7167 -74.3167 90° East 165 190 2,000 -360 Level New York TRACON
02:34PM 40.7000 -74.2500 108° East 157 181 1,300 -840 Descending New York TRACON
02:35PM 40.7000 -74.2000 90° East 126 145 400 -900 Descending New York TRACON